Alvin, WI

6:02 PM CST on November 23, 2014 (GMT -0600)
Argonne, WI | Change Station
CLOSE
Current Station
Personal Weather Station
Location: Argonne, WI
Elevation: 1620 ft
Nearby Weather Stations

Elev 1620 ft 45.65 °N, 88.86 °W | Updated 25 seconds ago

Fog
Fog
42.5 °F
Feels Like 42 °F
N
0.0
Wind Variable Wind from SE
Gusts 2.0 mph

Today
High -- | Low -- °F
--% Chance of Precip.
Yesterday
High -- | Low -- °F
Precip. -- in
7:05 AM 4:16 PM
Waxing Crescent, 3% visible
Pressure 29.43 in
Visibility 0.2 miles
Clouds
Windchill 42 °F
Dew Point 42 °F
Humidity 99%
Rainfall 0.11 in
Snow Depth Not available.
UV Not available.
Pollen .10 out of 12
Air Quality Not available.
Flu Activity Not available.
METAR KIMT 232354Z AUTO 14003KT 1/4SM -RA FG VV001 04/04 A2940 RMK AO2 RAB50 SLP964 P0000 60000 T00440039 10061 20044 56018

More Conditions Fewer Conditions

Pressure 29.43 in
Visibility 0.2 miles
Clouds
Windchill 42 °F
Dew Point 42 °F
Humidity 99%
Rainfall 0.11 in
Snow Depth Not available.
UV Not available.
Pollen .10 out of 12
Air Quality Not available.
Flu Activity Not available.
METAR KIMT 232354Z AUTO 14003KT 1/4SM -RA FG VV001 04/04 A2940 RMK AO2 RAB50 SLP964 P0000 60000 T00440039 10061 20044 56018

More Conditions Fewer Conditions

10-Day Weather Forecast

Almanac

Astronomy

Nov. 23, 2014 Rise Set
Actual Time
Civil Twilight
Nautical Twilight
Astronomical Twilight
Moon
Length of Visible Light
Length of Day
Tomorrow will be .
, % of the Moon is Illuminated

Today's Extremes

State Highs State Lows

Community

WunderPhotos

Upload Photos

1,773,215 photos uploaded!

WunderBlogs® & News

Nearby

Air Quality

  Air Quality AQ Index Pollutant
Not available.

Snow Depth

Station Depth Elevation

Earthquake Activity

City Distance Mag. Time & Date
Minimum magnitude displayed is 2.5.

Coastal Water Temperatures

Place Temperature

Nearby Weather Stations